sensor_id;sensor_type;location;lat;lon;timestamp;temperature;humidity
52203;DHT22;38173;52.850;6.970;2023-02-26T00:01:48;-0.80;99.90
52203;DHT22;38173;52.850;6.970;2023-02-26T00:04:15;-0.90;99.90
52203;DHT22;38173;52.850;6.970;2023-02-26T00:06:41;-1.00;99.90
52203;DHT22;38173;52.850;6.970;2023-02-26T00:09:20;-1.00;99.90
52203;DHT22;38173;52.850;6.970;2023-02-26T00:11:45;-1.00;99.90
52203;DHT22;38173;52.850;6.970;2023-02-26T00:14:12;-1.00;99.90
52203;DHT22;38173;52.850;6.970;2023-02-26T00:16:38;-1.10;99.90
52203;DHT22;38173;52.850;6.970;2023-02-26T00:19:05;-1.10;99.90
52203;DHT22;38173;52.850;6.970;2023-02-26T00:21:31;-1.10;99.90
52203;DHT22;38173;52.850;6.970;2023-02-26T00:23:58;-1.10;99.90
52203;DHT22;38173;52.850;6.970;2023-02-26T00:26:24;-1.20;99.90
52203;DHT22;38173;52.850;6.970;2023-02-26T00:28:51;-1.10;99.90
52203;DHT22;38173;52.850;6.970;2023-02-26T00:31:17;-1.20;99.90
52203;DHT22;38173;52.850;6.970;2023-02-26T00:33:45;-1.20;99.90
52203;DHT22;38173;52.850;6.970;2023-02-26T00:38:39;-1.30;99.90
52203;DHT22;38173;52.850;6.970;2023-02-26T00:41:09;-1.30;99.90
52203;DHT22;38173;52.850;6.970;2023-02-26T00:43:35;-1.40;99.90
52203;DHT22;38173;52.850;6.970;2023-02-26T00:51:04;-1.50;99.90
52203;DHT22;38173;52.850;6.970;2023-02-26T00:53:39;-1.60;99.90
52203;DHT22;38173;52.850;6.970;2023-02-26T00:56:09;-1.70;99.90
52203;DHT22;38173;52.850;6.970;2023-02-26T00:58:34;-1.70;99.90
52203;DHT22;38173;52.850;6.970;2023-02-26T01:01:00;-1.80;99.90
52203;DHT22;38173;52.850;6.970;2023-02-26T01:03:25;-1.90;99.90
52203;DHT22;38173;52.850;6.970;2023-02-26T01:05:52;-1.90;99.90
52203;DHT22;38173;52.850;6.970;2023-02-26T01:08:30;-2.00;99.90
52203;DHT22;38173;52.850;6.970;2023-02-26T01:10:57;-2.00;99.90
52203;DHT22;38173;52.850;6.970;2023-02-26T01:13:22;-2.00;99.90
52203;DHT22;38173;52.850;6.970;2023-02-26T01:15:51;-2.10;99.90
52203;DHT22;38173;52.850;6.970;2023-02-26T01:18:36;-2.10;99.90
52203;DHT22;38173;52.850;6.970;2023-02-26T01:21:04;-2.20;99.90
52203;DHT22;38173;52.850;6.970;2023-02-26T01:23:34;-2.20;99.90
52203;DHT22;38173;52.850;6.970;2023-02-26T01:26:03;-2.30;99.90
52203;DHT22;38173;52.850;6.970;2023-02-26T01:28:31;-2.30;99.90
52203;DHT22;38173;52.850;6.970;2023-02-26T01:30:57;-2.30;99.90
52203;DHT22;38173;52.850;6.970;2023-02-26T01:36:23;-2.40;99.90
52203;DHT22;38173;52.850;6.970;2023-02-26T01:39:01;-2.40;99.90
52203;DHT22;38173;52.850;6.970;2023-02-26T01:44:08;-2.40;99.90
52203;DHT22;38173;52.850;6.970;2023-02-26T01:49:19;-2.40;99.90
52203;DHT22;38173;52.850;6.970;2023-02-26T01:51:47;-2.40;99.90
52203;DHT22;38173;52.850;6.970;2023-02-26T01:54:13;-2.40;99.90
52203;DHT22;38173;52.850;6.970;2023-02-26T01:56:39;-2.40;99.90
52203;DHT22;38173;52.850;6.970;2023-02-26T01:59:06;-2.40;99.90
52203;DHT22;38173;52.850;6.970;2023-02-26T02:01:32;-2.40;99.90
52203;DHT22;38173;52.850;6.970;2023-02-26T02:03:58;-2.40;99.90
52203;DHT22;38173;52.850;6.970;2023-02-26T02:06:24;-2.50;99.90
52203;DHT22;38173;52.850;6.970;2023-02-26T02:08:51;-2.50;99.90
52203;DHT22;38173;52.850;6.970;2023-02-26T02:11:17;-2.50;99.90
52203;DHT22;38173;52.850;6.970;2023-02-26T02:14:08;-2.50;99.90
52203;DHT22;38173;52.850;6.970;2023-02-26T02:24:26;-2.50;99.90
52203;DHT22;38173;52.850;6.970;2023-02-26T02:31:51;-2.40;99.90
52203;DHT22;38173;52.850;6.970;2023-02-26T02:36:56;-2.40;99.90
52203;DHT22;38173;52.850;6.970;2023-02-26T02:39:26;-2.40;99.90
52203;DHT22;38173;52.850;6.970;2023-02-26T02:42:06;-2.40;99.90
52203;DHT22;38173;52.850;6.970;2023-02-26T02:44:36;-2.40;99.90
52203;DHT22;38173;52.850;6.970;2023-02-26T02:47:03;-2.40;99.90
52203;DHT22;38173;52.850;6.970;2023-02-26T02:49:41;-2.40;99.90
52203;DHT22;38173;52.850;6.970;2023-02-26T02:52:10;-2.40;99.90
52203;DHT22;38173;52.850;6.970;2023-02-26T02:54:46;-2.50;99.90
52203;DHT22;38173;52.850;6.970;2023-02-26T02:57:17;-2.50;99.90
52203;DHT22;38173;52.850;6.970;2023-02-26T02:59:45;-2.50;99.90
52203;DHT22;38173;52.850;6.970;2023-02-26T03:04:46;-2.50;99.90
52203;DHT22;38173;52.850;6.970;2023-02-26T03:07:12;-2.50;99.90
52203;DHT22;38173;52.850;6.970;2023-02-26T03:09:38;-2.60;99.90
52203;DHT22;38173;52.850;6.970;2023-02-26T03:12:04;-2.50;99.90
52203;DHT22;38173;52.850;6.970;2023-02-26T03:14:29;-2.60;99.90
52203;DHT22;38173;52.850;6.970;2023-02-26T03:17:06;-2.60;99.90
52203;DHT22;38173;52.850;6.970;2023-02-26T03:19:39;-2.60;99.90
52203;DHT22;38173;52.850;6.970;2023-02-26T03:24:34;-2.70;99.90
52203;DHT22;38173;52.850;6.970;2023-02-26T03:27:04;-2.70;99.90
52203;DHT22;38173;52.850;6.970;2023-02-26T03:29:49;-2.70;99.90
52203;DHT22;38173;52.850;6.970;2023-02-26T03:32:26;-2.70;99.90
52203;DHT22;38173;52.850;6.970;2023-02-26T03:34:56;-2.70;99.90
52203;DHT22;38173;52.850;6.970;2023-02-26T03:37:44;-2.70;99.90
52203;DHT22;38173;52.850;6.970;2023-02-26T03:40:12;-2.80;99.90
52203;DHT22;38173;52.850;6.970;2023-02-26T03:42:49;-2.70;99.90
52203;DHT22;38173;52.850;6.970;2023-02-26T03:45:17;-2.80;99.90
52203;DHT22;38173;52.850;6.970;2023-02-26T03:47:44;-2.70;99.90
52203;DHT22;38173;52.850;6.970;2023-02-26T03:50:45;-2.70;99.90
52203;DHT22;38173;52.850;6.970;2023-02-26T03:53:04;-2.70;99.90
52203;DHT22;38173;52.850;6.970;2023-02-26T03:55:43;-2.60;99.90
52203;DHT22;38173;52.850;6.970;2023-02-26T03:58:10;-2.60;99.90
52203;DHT22;38173;52.850;6.970;2023-02-26T04:00:35;-2.50;99.90
52203;DHT22;38173;52.850;6.970;2023-02-26T04:03:13;-2.50;99.90
52203;DHT22;38173;52.850;6.970;2023-02-26T04:05:42;-2.60;99.90
52203;DHT22;38173;52.850;6.970;2023-02-26T04:08:10;-2.60;99.90
52203;DHT22;38173;52.850;6.970;2023-02-26T04:10:41;-2.60;99.90
52203;DHT22;38173;52.850;6.970;2023-02-26T04:13:08;-2.70;99.90
52203;DHT22;38173;52.850;6.970;2023-02-26T04:15:34;-2.70;99.90
52203;DHT22;38173;52.850;6.970;2023-02-26T04:17:59;-2.70;99.90
52203;DHT22;38173;52.850;6.970;2023-02-26T04:20:25;-2.70;99.90
52203;DHT22;38173;52.850;6.970;2023-02-26T04:22:50;-2.80;99.90
52203;DHT22;38173;52.850;6.970;2023-02-26T04:25:16;-2.80;99.90
52203;DHT22;38173;52.850;6.970;2023-02-26T04:27:42;-2.80;99.90
52203;DHT22;38173;52.850;6.970;2023-02-26T04:30:08;-2.90;99.90
52203;DHT22;38173;52.850;6.970;2023-02-26T04:32:33;-2.90;99.90
52203;DHT22;38173;52.850;6.970;2023-02-26T04:35:00;-2.90;99.90
52203;DHT22;38173;52.850;6.970;2023-02-26T04:37:26;-2.90;99.90
52203;DHT22;38173;52.850;6.970;2023-02-26T04:39:51;-2.90;99.90
52203;DHT22;38173;52.850;6.970;2023-02-26T04:42:17;-2.90;99.90
52203;DHT22;38173;52.850;6.970;2023-02-26T04:44:43;-2.90;99.90
52203;DHT22;38173;52.850;6.970;2023-02-26T04:47:08;-2.80;99.90
52203;DHT22;38173;52.850;6.970;2023-02-26T04:49:34;-2.80;99.90
52203;DHT22;38173;52.850;6.970;2023-02-26T04:52:00;-2.80;99.90
52203;DHT22;38173;52.850;6.970;2023-02-26T04:54:26;-2.80;99.90
52203;DHT22;38173;52.850;6.970;2023-02-26T04:56:51;-2.80;99.90
52203;DHT22;38173;52.850;6.970;2023-02-26T04:59:17;-2.80;99.90
52203;DHT22;38173;52.850;6.970;2023-02-26T05:01:43;-2.80;99.90
52203;DHT22;38173;52.850;6.970;2023-02-26T05:04:08;-2.80;99.90
52203;DHT22;38173;52.850;6.970;2023-02-26T05:06:34;-2.80;99.90
52203;DHT22;38173;52.850;6.970;2023-02-26T05:09:00;-2.80;99.90
52203;DHT22;38173;52.850;6.970;2023-02-26T05:11:25;-2.80;99.90
52203;DHT22;38173;52.850;6.970;2023-02-26T05:13:51;-2.90;99.90
52203;DHT22;38173;52.850;6.970;2023-02-26T05:16:17;-2.90;99.90
52203;DHT22;38173;52.850;6.970;2023-02-26T05:18:44;-2.90;99.90
52203;DHT22;38173;52.850;6.970;2023-02-26T05:21:10;-2.90;99.90
52203;DHT22;38173;52.850;6.970;2023-02-26T05:23:35;-3.00;99.90
52203;DHT22;38173;52.850;6.970;2023-02-26T05:26:01;-3.00;99.90
52203;DHT22;38173;52.850;6.970;2023-02-26T05:28:27;-3.00;99.90
52203;DHT22;38173;52.850;6.970;2023-02-26T05:30:54;-3.00;99.90
52203;DHT22;38173;52.850;6.970;2023-02-26T05:33:20;-3.00;99.90
52203;DHT22;38173;52.850;6.970;2023-02-26T05:35:45;-3.00;99.90
52203;DHT22;38173;52.850;6.970;2023-02-26T05:38:12;-3.00;99.90
52203;DHT22;38173;52.850;6.970;2023-02-26T05:40:38;-2.90;99.90
52203;DHT22;38173;52.850;6.970;2023-02-26T05:43:06;-2.90;99.90
52203;DHT22;38173;52.850;6.970;2023-02-26T05:45:31;-2.90;99.90
52203;DHT22;38173;52.850;6.970;2023-02-26T05:47:57;-2.90;99.90
52203;DHT22;38173;52.850;6.970;2023-02-26T05:50:23;-2.90;99.90
52203;DHT22;38173;52.850;6.970;2023-02-26T05:52:49;-2.90;99.90
52203;DHT22;38173;52.850;6.970;2023-02-26T05:55:14;-2.90;99.90
52203;DHT22;38173;52.850;6.970;2023-02-26T05:57:41;-2.90;99.90
52203;DHT22;38173;52.850;6.970;2023-02-26T06:00:07;-2.80;99.90
52203;DHT22;38173;52.850;6.970;2023-02-26T06:02:33;-2.80;99.90
52203;DHT22;38173;52.850;6.970;2023-02-26T06:04:58;-2.80;99.90
52203;DHT22;38173;52.850;6.970;2023-02-26T06:07:24;-2.80;99.90
52203;DHT22;38173;52.850;6.970;2023-02-26T06:09:50;-2.90;99.90
52203;DHT22;38173;52.850;6.970;2023-02-26T06:12:15;-2.90;99.90
52203;DHT22;38173;52.850;6.970;2023-02-26T06:14:41;-2.80;99.90
52203;DHT22;38173;52.850;6.970;2023-02-26T06:17:07;-2.80;99.90
52203;DHT22;38173;52.850;6.970;2023-02-26T06:19:33;-2.90;99.90
52203;DHT22;38173;52.850;6.970;2023-02-26T06:21:58;-2.90;99.90
52203;DHT22;38173;52.850;6.970;2023-02-26T06:24:24;-3.00;99.90
52203;DHT22;38173;52.850;6.970;2023-02-26T06:26:51;-2.90;99.90
52203;DHT22;38173;52.850;6.970;2023-02-26T06:29:16;-3.00;99.90
52203;DHT22;38173;52.850;6.970;2023-02-26T06:31:45;-3.10;99.90
52203;DHT22;38173;52.850;6.970;2023-02-26T06:34:11;-3.10;99.90
52203;DHT22;38173;52.850;6.970;2023-02-26T06:36:37;-3.10;99.90
52203;DHT22;38173;52.850;6.970;2023-02-26T06:39:06;-3.00;99.90
52203;DHT22;38173;52.850;6.970;2023-02-26T06:41:33;-3.00;99.90
52203;DHT22;38173;52.850;6.970;2023-02-26T06:43:59;-3.00;99.90
52203;DHT22;38173;52.850;6.970;2023-02-26T06:46:26;-2.90;99.90
52203;DHT22;38173;52.850;6.970;2023-02-26T06:48:51;-2.90;99.90
52203;DHT22;38173;52.850;6.970;2023-02-26T06:51:17;-2.90;99.90
52203;DHT22;38173;52.850;6.970;2023-02-26T06:53:43;-2.90;99.90
52203;DHT22;38173;52.850;6.970;2023-02-26T06:56:08;-2.90;99.90
52203;DHT22;38173;52.850;6.970;2023-02-26T06:58:34;-2.90;99.90
52203;DHT22;38173;52.850;6.970;2023-02-26T07:01:01;-2.80;99.90
52203;DHT22;38173;52.850;6.970;2023-02-26T07:03:27;-2.90;99.90
52203;DHT22;38173;52.850;6.970;2023-02-26T07:05:53;-2.90;99.90
52203;DHT22;38173;52.850;6.970;2023-02-26T07:08:19;-2.80;99.90
52203;DHT22;38173;52.850;6.970;2023-02-26T07:10:44;-2.80;99.90
52203;DHT22;38173;52.850;6.970;2023-02-26T07:13:16;-2.70;99.90
52203;DHT22;38173;52.850;6.970;2023-02-26T07:15:42;-2.60;99.90
52203;DHT22;38173;52.850;6.970;2023-02-26T07:18:08;-2.60;99.90
52203;DHT22;38173;52.850;6.970;2023-02-26T07:20:34;-2.50;99.90
52203;DHT22;38173;52.850;6.970;2023-02-26T07:23:01;-2.40;99.90
52203;DHT22;38173;52.850;6.970;2023-02-26T07:25:27;-2.30;99.90
52203;DHT22;38173;52.850;6.970;2023-02-26T07:27:53;-2.20;99.90
52203;DHT22;38173;52.850;6.970;2023-02-26T07:30:19;-2.20;99.90
52203;DHT22;38173;52.850;6.970;2023-02-26T07:32:45;-2.10;99.90
52203;DHT22;38173;52.850;6.970;2023-02-26T07:35:10;-2.20;99.90
52203;DHT22;38173;52.850;6.970;2023-02-26T07:37:36;-2.10;99.90
52203;DHT22;38173;52.850;6.970;2023-02-26T07:40:02;-2.20;99.90
52203;DHT22;38173;52.850;6.970;2023-02-26T07:42:28;-2.10;99.90
52203;DHT22;38173;52.850;6.970;2023-02-26T07:44:53;-2.00;99.90
52203;DHT22;38173;52.850;6.970;2023-02-26T07:47:19;-2.00;99.90
52203;DHT22;38173;52.850;6.970;2023-02-26T07:49:45;-1.90;99.90
52203;DHT22;38173;52.850;6.970;2023-02-26T07:52:10;-1.80;99.90
52203;DHT22;38173;52.850;6.970;2023-02-26T07:54:36;-1.70;99.90
52203;DHT22;38173;52.850;6.970;2023-02-26T07:57:02;-1.60;99.90
52203;DHT22;38173;52.850;6.970;2023-02-26T07:59:28;-1.50;99.90
52203;DHT22;38173;52.850;6.970;2023-02-26T08:01:55;-1.40;99.90
52203;DHT22;38173;52.850;6.970;2023-02-26T08:04:31;-1.20;99.90
52203;DHT22;38173;52.850;6.970;2023-02-26T08:07:01;-1.00;99.90
52203;DHT22;38173;52.850;6.970;2023-02-26T08:09:27;-0.80;99.90
52203;DHT22;38173;52.850;6.970;2023-02-26T08:11:52;-0.70;99.90
52203;DHT22;38173;52.850;6.970;2023-02-26T08:14:21;-0.60;99.90
52203;DHT22;38173;52.850;6.970;2023-02-26T08:16:48;-0.50;99.90
52203;DHT22;38173;52.850;6.970;2023-02-26T08:19:17;-0.50;99.90
52203;DHT22;38173;52.850;6.970;2023-02-26T08:21:43;-0.40;99.90
52203;DHT22;38173;52.850;6.970;2023-02-26T08:24:12;-0.30;99.90
52203;DHT22;38173;52.850;6.970;2023-02-26T08:26:38;-0.20;99.90
52203;DHT22;38173;52.850;6.970;2023-02-26T08:29:04;-0.20;99.90
52203;DHT22;38173;52.850;6.970;2023-02-26T08:31:29;-0.10;99.90
52203;DHT22;38173;52.850;6.970;2023-02-26T08:33:56;-0.10;99.90
52203;DHT22;38173;52.850;6.970;2023-02-26T08:36:22;0.00;99.90
52203;DHT22;38173;52.850;6.970;2023-02-26T08:38:48;0.10;99.90
52203;DHT22;38173;52.850;6.970;2023-02-26T08:41:14;0.20;99.90
52203;DHT22;38173;52.850;6.970;2023-02-26T08:43:40;0.30;99.90
52203;DHT22;38173;52.850;6.970;2023-02-26T08:46:06;0.40;99.90
52203;DHT22;38173;52.850;6.970;2023-02-26T08:48:32;0.50;99.90
52203;DHT22;38173;52.850;6.970;2023-02-26T08:50:58;0.60;99.90
52203;DHT22;38173;52.850;6.970;2023-02-26T08:53:24;0.70;99.90
52203;DHT22;38173;52.850;6.970;2023-02-26T08:55:50;0.80;99.90
52203;DHT22;38173;52.850;6.970;2023-02-26T08:58:19;0.80;99.90
52203;DHT22;38173;52.850;6.970;2023-02-26T09:00:46;0.90;99.90
52203;DHT22;38173;52.850;6.970;2023-02-26T09:03:12;1.00;99.90
52203;DHT22;38173;52.850;6.970;2023-02-26T09:05:38;1.10;99.90
52203;DHT22;38173;52.850;6.970;2023-02-26T09:08:05;1.20;99.90
52203;DHT22;38173;52.850;6.970;2023-02-26T09:10:31;1.30;99.90
52203;DHT22;38173;52.850;6.970;2023-02-26T09:12:56;1.40;99.90
52203;DHT22;38173;52.850;6.970;2023-02-26T09:15:24;1.50;99.90
52203;DHT22;38173;52.850;6.970;2023-02-26T09:17:50;1.60;99.90
52203;DHT22;38173;52.850;6.970;2023-02-26T09:20:16;1.70;99.90
52203;DHT22;38173;52.850;6.970;2023-02-26T09:22:42;1.80;99.90
52203;DHT22;38173;52.850;6.970;2023-02-26T09:25:08;1.90;99.90
52203;DHT22;38173;52.850;6.970;2023-02-26T09:27:33;2.00;99.90
52203;DHT22;38173;52.850;6.970;2023-02-26T09:30:03;2.10;99.90
52203;DHT22;38173;52.850;6.970;2023-02-26T09:32:29;2.20;99.90
52203;DHT22;38173;52.850;6.970;2023-02-26T09:34:57;2.30;99.90
52203;DHT22;38173;52.850;6.970;2023-02-26T09:37:26;2.40;99.90
52203;DHT22;38173;52.850;6.970;2023-02-26T09:39:51;2.50;99.90
52203;DHT22;38173;52.850;6.970;2023-02-26T09:42:29;2.60;99.90
52203;DHT22;38173;52.850;6.970;2023-02-26T09:44:59;2.70;99.90
52203;DHT22;38173;52.850;6.970;2023-02-26T09:52:31;2.90;99.90
52203;DHT22;38173;52.850;6.970;2023-02-26T09:55:08;3.00;99.90
52203;DHT22;38173;52.850;6.970;2023-02-26T09:57:41;3.00;99.90
52203;DHT22;38173;52.850;6.970;2023-02-26T10:00:21;3.10;99.90
52203;DHT22;38173;52.850;6.970;2023-02-26T10:03:14;3.20;99.90
52203;DHT22;38173;52.850;6.970;2023-02-26T10:08:27;3.20;99.90
52203;DHT22;38173;52.850;6.970;2023-02-26T10:11:14;3.30;99.90
52203;DHT22;38173;52.850;6.970;2023-02-26T10:13:43;3.30;99.90
52203;DHT22;38173;52.850;6.970;2023-02-26T10:16:16;3.40;99.90
52203;DHT22;38173;52.850;6.970;2023-02-26T10:18:47;3.50;99.90
52203;DHT22;38173;52.850;6.970;2023-02-26T10:22:01;3.50;99.90
52203;DHT22;38173;52.850;6.970;2023-02-26T10:24:03;3.60;99.90
52203;DHT22;38173;52.850;6.970;2023-02-26T10:26:32;3.60;99.90
52203;DHT22;38173;52.850;6.970;2023-02-26T10:32:02;3.70;99.90
52203;DHT22;38173;52.850;6.970;2023-02-26T10:34:33;3.70;99.90
52203;DHT22;38173;52.850;6.970;2023-02-26T10:37:19;3.80;99.90
52203;DHT22;38173;52.850;6.970;2023-02-26T10:42:27;4.00;99.90
52203;DHT22;38173;52.850;6.970;2023-02-26T10:45:06;4.10;99.90
52203;DHT22;38173;52.850;6.970;2023-02-26T10:50:28;4.30;99.90
52203;DHT22;38173;52.850;6.970;2023-02-26T10:52:55;4.50;99.90
52203;DHT22;38173;52.850;6.970;2023-02-26T10:55:29;4.60;99.90
52203;DHT22;38173;52.850;6.970;2023-02-26T10:58:05;4.90;99.90
52203;DHT22;38173;52.850;6.970;2023-02-26T11:00:33;5.10;99.90
52203;DHT22;38173;52.850;6.970;2023-02-26T11:03:03;5.30;99.90
52203;DHT22;38173;52.850;6.970;2023-02-26T11:05:30;5.40;99.90
52203;DHT22;38173;52.850;6.970;2023-02-26T11:08:04;5.60;99.90
52203;DHT22;38173;52.850;6.970;2023-02-26T11:10:41;5.80;99.90
52203;DHT22;38173;52.850;6.970;2023-02-26T11:13:07;6.00;99.90
52203;DHT22;38173;52.850;6.970;2023-02-26T11:15:33;6.00;99.90
52203;DHT22;38173;52.850;6.970;2023-02-26T11:17:59;6.10;99.90
52203;DHT22;38173;52.850;6.970;2023-02-26T11:23:00;6.50;99.90
52203;DHT22;38173;52.850;6.970;2023-02-26T11:25:27;6.60;99.90
52203;DHT22;38173;52.850;6.970;2023-02-26T11:28:02;6.70;99.90
52203;DHT22;38173;52.850;6.970;2023-02-26T11:30:29;6.80;99.50
52203;DHT22;38173;52.850;6.970;2023-02-26T11:32:56;6.90;98.20
52203;DHT22;38173;52.850;6.970;2023-02-26T11:35:23;6.70;99.90
52203;DHT22;38173;52.850;6.970;2023-02-26T11:37:49;6.50;99.90
52203;DHT22;38173;52.850;6.970;2023-02-26T11:42:54;6.40;99.90
52203;DHT22;38173;52.850;6.970;2023-02-26T11:45:23;6.10;99.90
52203;DHT22;38173;52.850;6.970;2023-02-26T11:47:52;5.90;99.90
52203;DHT22;38173;52.850;6.970;2023-02-26T11:50:22;5.80;99.90
52203;DHT22;38173;52.850;6.970;2023-02-26T11:52:54;6.10;99.90
52203;DHT22;38173;52.850;6.970;2023-02-26T11:55:21;6.60;99.90
52203;DHT22;38173;52.850;6.970;2023-02-26T11:57:51;7.10;99.90
52203;DHT22;38173;52.850;6.970;2023-02-26T12:00:36;7.50;99.90
52203;DHT22;38173;52.850;6.970;2023-02-26T12:03:07;7.50;98.10
52203;DHT22;38173;52.850;6.970;2023-02-26T12:05:35;7.30;99.80
52203;DHT22;38173;52.850;6.970;2023-02-26T12:08:02;6.90;97.90
52203;DHT22;38173;52.850;6.970;2023-02-26T12:10:39;6.50;95.70
52203;DHT22;38173;52.850;6.970;2023-02-26T12:13:26;6.10;99.40
52203;DHT22;38173;52.850;6.970;2023-02-26T12:15:56;6.00;99.90
52203;DHT22;38173;52.850;6.970;2023-02-26T12:18:29;5.80;99.90
52203;DHT22;38173;52.850;6.970;2023-02-26T12:21:16;5.70;99.90
52203;DHT22;38173;52.850;6.970;2023-02-26T12:26:52;5.60;99.90
52203;DHT22;38173;52.850;6.970;2023-02-26T12:29:32;5.60;99.90
52203;DHT22;38173;52.850;6.970;2023-02-26T12:42:13;5.20;99.90
52203;DHT22;38173;52.850;6.970;2023-02-26T12:47:40;5.10;99.90
52203;DHT22;38173;52.850;6.970;2023-02-26T13:08:31;5.20;99.90
52203;DHT22;38173;52.850;6.970;2023-02-26T13:18:36;5.20;99.90
52203;DHT22;38173;52.850;6.970;2023-02-26T13:21:07;5.30;99.90
52203;DHT22;38173;52.850;6.970;2023-02-26T13:23:56;5.40;99.90
52203;DHT22;38173;52.850;6.970;2023-02-26T13:26:21;5.50;99.90
52203;DHT22;38173;52.850;6.970;2023-02-26T13:33:45;5.50;99.90
52203;DHT22;38173;52.850;6.970;2023-02-26T13:36:13;5.70;99.90
52203;DHT22;38173;52.850;6.970;2023-02-26T13:48:57;6.30;98.70
52203;DHT22;38173;52.850;6.970;2023-02-26T13:51:32;6.40;97.40
52203;DHT22;38173;52.850;6.970;2023-02-26T13:54:45;6.30;98.00
52203;DHT22;38173;52.850;6.970;2023-02-26T13:57:04;6.20;98.30
52203;DHT22;38173;52.850;6.970;2023-02-26T14:02:29;6.10;99.70
52203;DHT22;38173;52.850;6.970;2023-02-26T14:04:52;6.10;98.00
52203;DHT22;38173;52.850;6.970;2023-02-26T14:07:44;6.10;99.90
52203;DHT22;38173;52.850;6.970;2023-02-26T14:10:13;6.00;99.70
52203;DHT22;38173;52.850;6.970;2023-02-26T14:12:43;5.90;99.90
52203;DHT22;38173;52.850;6.970;2023-02-26T14:17:38;5.60;99.90
52203;DHT22;38173;52.850;6.970;2023-02-26T14:22:42;6.00;99.90
52203;DHT22;38173;52.850;6.970;2023-02-26T14:27:47;6.50;99.90
52203;DHT22;38173;52.850;6.970;2023-02-26T14:30:18;6.20;99.90
52203;DHT22;38173;52.850;6.970;2023-02-26T14:32:49;6.00;99.90
52203;DHT22;38173;52.850;6.970;2023-02-26T14:35:18;5.90;99.90
52203;DHT22;38173;52.850;6.970;2023-02-26T14:37:48;5.70;99.90
52203;DHT22;38173;52.850;6.970;2023-02-26T14:40:16;5.90;99.90
52203;DHT22;38173;52.850;6.970;2023-02-26T14:47:56;7.90;99.90
52203;DHT22;38173;52.850;6.970;2023-02-26T14:50:22;8.70;98.70
52203;DHT22;38173;52.850;6.970;2023-02-26T14:52:57;9.40;97.30
52203;DHT22;38173;52.850;6.970;2023-02-26T15:01:01;9.80;95.20
52203;DHT22;38173;52.850;6.970;2023-02-26T15:03:46;9.30;92.30
52203;DHT22;38173;52.850;6.970;2023-02-26T15:08:58;8.10;95.80
52203;DHT22;38173;52.850;6.970;2023-02-26T15:16:36;8.00;95.30
52203;DHT22;38173;52.850;6.970;2023-02-26T15:24:10;7.70;99.90
52203;DHT22;38173;52.850;6.970;2023-02-26T15:26:38;8.10;98.30
52203;DHT22;38173;52.850;6.970;2023-02-26T15:29:05;8.00;97.50
52203;DHT22;38173;52.850;6.970;2023-02-26T15:31:42;7.60;96.00
52203;DHT22;38173;52.850;6.970;2023-02-26T15:34:09;7.10;96.70
52203;DHT22;38173;52.850;6.970;2023-02-26T15:36:38;6.70;98.20
52203;DHT22;38173;52.850;6.970;2023-02-26T15:39:07;6.60;98.90
52203;DHT22;38173;52.850;6.970;2023-02-26T15:41:33;6.60;99.90
52203;DHT22;38173;52.850;6.970;2023-02-26T15:44:01;6.70;99.00
52203;DHT22;38173;52.850;6.970;2023-02-26T15:46:29;6.80;99.00
52203;DHT22;38173;52.850;6.970;2023-02-26T15:48:58;6.80;99.40
52203;DHT22;38173;52.850;6.970;2023-02-26T15:51:24;6.60;97.60
52203;DHT22;38173;52.850;6.970;2023-02-26T15:53:51;6.20;98.90
52203;DHT22;38173;52.850;6.970;2023-02-26T15:56:21;5.60;99.90
52203;DHT22;38173;52.850;6.970;2023-02-26T15:58:55;5.10;99.90
52203;DHT22;38173;52.850;6.970;2023-02-26T16:01:23;4.70;99.90
52203;DHT22;38173;52.850;6.970;2023-02-26T16:03:49;4.50;99.90
52203;DHT22;38173;52.850;6.970;2023-02-26T16:06:22;4.90;99.90
52203;DHT22;38173;52.850;6.970;2023-02-26T16:08:48;5.30;99.90
52203;DHT22;38173;52.850;6.970;2023-02-26T16:11:17;5.10;99.90
52203;DHT22;38173;52.850;6.970;2023-02-26T16:13:43;4.80;99.90
52203;DHT22;38173;52.850;6.970;2023-02-26T16:16:14;4.50;99.90
52203;DHT22;38173;52.850;6.970;2023-02-26T16:18:42;4.30;99.90
52203;DHT22;38173;52.850;6.970;2023-02-26T16:21:10;4.20;99.90
52203;DHT22;38173;52.850;6.970;2023-02-26T16:23:42;3.90;99.90
52203;DHT22;38173;52.850;6.970;2023-02-26T16:26:20;3.80;99.90
52203;DHT22;38173;52.850;6.970;2023-02-26T16:28:46;3.80;99.90
52203;DHT22;38173;52.850;6.970;2023-02-26T16:31:17;3.60;99.90
52203;DHT22;38173;52.850;6.970;2023-02-26T16:33:58;3.50;99.90
52203;DHT22;38173;52.850;6.970;2023-02-26T16:36:25;3.30;99.90
52203;DHT22;38173;52.850;6.970;2023-02-26T16:39:00;3.20;99.90
52203;DHT22;38173;52.850;6.970;2023-02-26T16:41:28;3.10;99.90
52203;DHT22;38173;52.850;6.970;2023-02-26T16:43:55;3.00;99.90
52203;DHT22;38173;52.850;6.970;2023-02-26T16:46:30;3.00;99.90
52203;DHT22;38173;52.850;6.970;2023-02-26T16:48:59;3.00;99.90
52203;DHT22;38173;52.850;6.970;2023-02-26T16:51:28;2.90;99.90
52203;DHT22;38173;52.850;6.970;2023-02-26T16:54:02;2.90;99.90
52203;DHT22;38173;52.850;6.970;2023-02-26T16:56:31;2.80;99.90
52203;DHT22;38173;52.850;6.970;2023-02-26T16:59:05;2.80;99.90
52203;DHT22;38173;52.850;6.970;2023-02-26T17:01:34;2.70;99.90
52203;DHT22;38173;52.850;6.970;2023-02-26T17:04:00;2.60;99.90
52203;DHT22;38173;52.850;6.970;2023-02-26T17:06:28;2.50;99.90
52203;DHT22;38173;52.850;6.970;2023-02-26T17:08:56;2.40;99.90
52203;DHT22;38173;52.850;6.970;2023-02-26T17:16:45;2.10;99.90
52203;DHT22;38173;52.850;6.970;2023-02-26T17:19:11;2.00;99.90
52203;DHT22;38173;52.850;6.970;2023-02-26T17:21:40;2.00;99.90
52203;DHT22;38173;52.850;6.970;2023-02-26T17:24:06;1.90;99.90
52203;DHT22;38173;52.850;6.970;2023-02-26T17:26:33;1.80;99.90
52203;DHT22;38173;52.850;6.970;2023-02-26T17:28:59;1.70;99.90
52203;DHT22;38173;52.850;6.970;2023-02-26T17:31:24;1.70;99.90
52203;DHT22;38173;52.850;6.970;2023-02-26T17:33:51;1.60;99.90
52203;DHT22;38173;52.850;6.970;2023-02-26T17:36:17;1.60;99.90
52203;DHT22;38173;52.850;6.970;2023-02-26T17:38:45;1.60;99.90
52203;DHT22;38173;52.850;6.970;2023-02-26T17:41:15;1.50;99.90
52203;DHT22;38173;52.850;6.970;2023-02-26T17:43:41;1.50;99.90
52203;DHT22;38173;52.850;6.970;2023-02-26T17:46:08;1.40;99.90
52203;DHT22;38173;52.850;6.970;2023-02-26T17:48:34;1.40;99.90
52203;DHT22;38173;52.850;6.970;2023-02-26T17:51:00;1.40;99.90
52203;DHT22;38173;52.850;6.970;2023-02-26T17:53:25;1.40;99.90
52203;DHT22;38173;52.850;6.970;2023-02-26T17:55:58;1.40;99.90
52203;DHT22;38173;52.850;6.970;2023-02-26T17:58:29;1.40;99.90
52203;DHT22;38173;52.850;6.970;2023-02-26T18:00:55;1.50;99.90
52203;DHT22;38173;52.850;6.970;2023-02-26T18:03:22;1.50;99.90
52203;DHT22;38173;52.850;6.970;2023-02-26T18:05:48;1.50;99.90
52203;DHT22;38173;52.850;6.970;2023-02-26T18:08:23;1.60;99.90
52203;DHT22;38173;52.850;6.970;2023-02-26T18:10:49;1.60;99.90
52203;DHT22;38173;52.850;6.970;2023-02-26T18:13:15;1.50;99.90
52203;DHT22;38173;52.850;6.970;2023-02-26T18:15:41;1.50;99.90
52203;DHT22;38173;52.850;6.970;2023-02-26T18:18:10;1.50;99.90
52203;DHT22;38173;52.850;6.970;2023-02-26T18:20:37;1.40;99.90
52203;DHT22;38173;52.850;6.970;2023-02-26T18:23:02;1.30;99.90